Time,TemperatureF,DewpointF,PressureIn,WindDirection,WindDirectionDegrees,WindSpeedMPH,WindSpeedGustMPH,Humidity,HourlyPrecipIn,Conditions,Clouds,dailyrainin,SolarRadiationWatts/m^2,SoftwareType,DateUTC
2013-05-05 00:01:00,61.0,29.0,-100.00,East,91,6.0,20.0,29,0.00,,,0.00,0.000000,,2013-05-05 07:01:00,
2013-05-05 00:11:00,61.0,29.0,-100.00,East,91,6.0,20.0,29,0.00,,,0.00,0.000000,,2013-05-05 07:11:00,
2013-05-05 00:42:00,59.0,28.0,-100.00,East,91,7.0,12.0,31,0.00,,,0.00,0.000000,,2013-05-05 07:42:00,
2013-05-05 00:52:00,59.0,28.0,-100.00,East,91,7.0,12.0,31,0.00,,,0.00,0.000000,,2013-05-05 07:52:00,
2013-05-05 01:02:00,59.0,28.0,-100.00,East,91,7.0,12.0,31,0.00,,,0.00,0.000000,,2013-05-05 08:02:00,
2013-05-05 01:11:00,59.0,28.0,-100.00,East,91,7.0,12.0,31,0.00,,,0.00,0.000000,,2013-05-05 08:11:00,
2013-05-05 01:32:00,60.0,28.0,-100.00,ENE,77,8.0,14.0,30,0.00,,,0.00,0.000000,,2013-05-05 08:32:00,
2013-05-05 01:42:00,60.0,28.0,-100.00,ENE,77,8.0,14.0,30,0.00,,,0.00,0.000000,,2013-05-05 08:42:00,
2013-05-05 01:53:00,60.0,28.0,-100.00,ENE,77,8.0,14.0,30,0.00,,,0.00,0.000000,,2013-05-05 08:53:00,
2013-05-05 02:01:00,60.0,28.0,-100.00,ENE,77,8.0,14.0,30,0.00,,,0.00,0.000000,,2013-05-05 09:01:00,
2013-05-05 02:11:00,60.0,28.0,-100.00,ENE,77,8.0,14.0,30,0.00,,,0.00,0.000000,,2013-05-05 09:11:00,
2013-05-05 02:42:00,59.0,28.0,-100.00,East,84,8.0,13.0,31,0.00,,,0.00,0.000000,,2013-05-05 09:42:00,
2013-05-05 02:52:00,59.0,28.0,-100.00,East,84,8.0,13.0,31,0.00,,,0.00,0.000000,,2013-05-05 09:52:00,
2013-05-05 03:02:00,59.0,28.0,-100.00,East,84,8.0,13.0,31,0.00,,,0.00,0.000000,,2013-05-05 10:02:00,
2013-05-05 03:12:00,59.0,28.0,-100.00,East,84,8.0,13.0,31,0.00,,,0.00,0.000000,,2013-05-05 10:12:00,
2013-05-05 03:32:00,58.0,29.0,-100.00,ENE,76,9.0,17.0,33,0.00,,,0.00,0.000000,,2013-05-05 10:32:00,
2013-05-05 03:42:00,58.0,29.0,-100.00,ENE,76,9.0,17.0,33,0.00,,,0.00,0.000000,,2013-05-05 10:42:00,
2013-05-05 03:53:00,58.0,29.0,-100.00,ENE,76,9.0,17.0,33,0.00,,,0.00,0.000000,,2013-05-05 10:53:00,
2013-05-05 04:01:00,58.0,29.0,-100.00,ENE,76,9.0,17.0,33,0.00,,,0.00,0.000000,,2013-05-05 11:01:00,
2013-05-05 04:11:00,58.0,29.0,-100.00,ENE,76,9.0,17.0,33,0.00,,,0.00,0.000000,,2013-05-05 11:11:00,
2013-05-05 04:32:00,59.0,29.0,-100.00,ENE,61,13.0,20.0,32,0.00,,,0.00,0.000000,,2013-05-05 11:32:00,
2013-05-05 04:42:00,59.0,29.0,-100.00,ENE,61,13.0,20.0,32,0.00,,,0.00,0.000000,,2013-05-05 11:42:00,
2013-05-05 04:52:00,59.0,29.0,-100.00,ENE,61,13.0,20.0,32,0.00,,,0.00,0.000000,,2013-05-05 11:52:00,
2013-05-05 05:01:00,59.0,29.0,-100.00,ENE,61,13.0,20.0,32,0.00,,,0.00,0.000000,,2013-05-05 12:01:00,
2013-05-05 05:11:00,59.0,29.0,-100.00,ENE,61,13.0,20.0,32,0.00,,,0.00,0.000000,,2013-05-05 12:11:00,
2013-05-05 06:42:00,53.0,32.0,-100.00,ESE,108,3.0,14.0,45,-99.99,,,0.00,10.000000,,2013-05-05 13:42:00,
2013-05-05 06:52:00,53.0,32.0,-100.00,ESE,108,3.0,14.0,45,-99.99,,,0.00,10.000000,,2013-05-05 13:52:00,
2013-05-05 07:01:00,53.0,32.0,-100.00,ESE,108,3.0,14.0,45,-99.99,,,0.00,10.000000,,2013-05-05 14:01:00,
2013-05-05 07:11:00,53.0,32.0,-100.00,ESE,108,3.0,14.0,45,-99.99,,,0.00,10.000000,,2013-05-05 14:11:00,
2013-05-05 07:42:00,56.0,34.0,-100.00,ESE,106,3.0,6.0,43,0.00,,,0.00,53.000000,,2013-05-05 14:42:00,
2013-05-05 07:52:00,56.0,34.0,-100.00,ESE,106,3.0,6.0,43,0.00,,,0.00,53.000000,,2013-05-05 14:52:00,
2013-05-05 08:01:00,56.0,34.0,-100.00,ESE,106,3.0,6.0,43,0.00,,,0.00,53.000000,,2013-05-05 15:01:00,
2013-05-05 08:11:00,56.0,34.0,-100.00,ESE,106,3.0,6.0,43,0.00,,,0.00,53.000000,,2013-05-05 15:11:00,
2013-05-05 08:33:00,60.0,34.0,-100.00,SE,130,2.0,9.0,37,0.00,,,0.00,201.000000,,2013-05-05 15:33:00,
2013-05-05 08:43:00,60.0,34.0,-100.00,SE,130,2.0,9.0,37,0.00,,,0.00,201.000000,,2013-05-05 15:43:00,
2013-05-05 08:53:00,60.0,34.0,-100.00,SE,130,2.0,9.0,37,0.00,,,0.00,201.000000,,2013-05-05 15:53:00,
2013-05-05 09:02:00,60.0,34.0,-100.00,SE,130,2.0,9.0,37,0.00,,,0.00,201.000000,,2013-05-05 16:02:00,
2013-05-05 09:12:00,60.0,34.0,-100.00,SE,130,2.0,9.0,37,0.00,,,0.00,201.000000,,2013-05-05 16:12:00,
2013-05-05 09:42:00,62.0,35.0,-100.00,SE,125,3.0,8.0,36,0.00,,,0.00,427.000000,,2013-05-05 16:42:00,
2013-05-05 09:52:00,62.0,35.0,-100.00,SE,125,3.0,8.0,36,0.00,,,0.00,427.000000,,2013-05-05 16:52:00,
2013-05-05 10:02:00,62.0,35.0,-100.00,SE,125,3.0,8.0,36,0.00,,,0.00,427.000000,,2013-05-05 17:02:00,
2013-05-05 10:12:00,62.0,35.0,-100.00,SE,125,3.0,8.0,36,0.00,,,0.00,427.000000,,2013-05-05 17:12:00,
2013-05-05 10:32:00,66.0,35.0,-100.00,ESE,106,5.0,12.0,32,0.00,,,0.00,648.000000,,2013-05-05 17:32:00,
2013-05-05 10:42:00,66.0,35.0,-100.00,ESE,106,5.0,12.0,32,0.00,,,0.00,648.000000,,2013-05-05 17:42:00,
2013-05-05 10:52:00,66.0,35.0,-100.00,ESE,106,5.0,12.0,32,0.00,,,0.00,648.000000,,2013-05-05 17:52:00,
2013-05-05 11:01:00,66.0,35.0,-100.00,ESE,106,5.0,12.0,32,0.00,,,0.00,648.000000,,2013-05-05 18:01:00,
2013-05-05 11:11:00,66.0,35.0,-100.00,ESE,106,5.0,12.0,32,0.00,,,0.00,648.000000,,2013-05-05 18:11:00,
2013-05-05 11:42:00,70.0,37.0,-100.00,East,100,4.0,12.0,30,0.00,,,0.00,778.000000,,2013-05-05 18:42:00,
2013-05-05 11:52:00,70.0,37.0,-100.00,East,100,4.0,12.0,30,0.00,,,0.00,778.000000,,2013-05-05 18:52:00,
2013-05-05 12:01:00,70.0,37.0,-100.00,East,100,4.0,12.0,30,0.00,,,0.00,778.000000,,2013-05-05 19:01:00,
2013-05-05 12:11:00,70.0,37.0,-100.00,East,100,4.0,12.0,30,0.00,,,0.00,778.000000,,2013-05-05 19:11:00,
2013-05-05 13:42:00,72.0,35.0,-100.00,East,97,7.0,15.0,26,-99.99,,,-99.99,889.000000,,2013-05-05 20:42:00,
2013-05-05 13:52:00,72.0,35.0,-100.00,East,97,7.0,15.0,26,-99.99,,,-99.99,889.000000,,2013-05-05 20:52:00,
2013-05-05 14:01:00,72.0,35.0,-100.00,East,97,7.0,15.0,26,-99.99,,,-99.99,889.000000,,2013-05-05 21:01:00,
2013-05-05 14:11:00,72.0,35.0,-100.00,East,97,7.0,15.0,26,-99.99,,,-99.99,889.000000,,2013-05-05 21:11:00,
2013-05-05 15:33:00,75.0,36.0,-100.00,ESE,113,5.0,17.0,24,-99.99,,,0.00,818.000000,,2013-05-05 22:33:00,
2013-05-05 15:42:00,75.0,36.0,-100.00,ESE,113,5.0,17.0,24,-99.99,,,0.00,818.000000,,2013-05-05 22:42:00,
2013-05-05 15:52:00,75.0,36.0,-100.00,ESE,113,5.0,17.0,24,-99.99,,,0.00,818.000000,,2013-05-05 22:52:00,
2013-05-05 16:02:00,75.0,36.0,-100.00,ESE,113,5.0,17.0,24,-99.99,,,0.00,818.000000,,2013-05-05 23:02:00,
2013-05-05 16:11:00,75.0,36.0,-100.00,ESE,113,5.0,17.0,24,-99.99,,,0.00,818.000000,,2013-05-05 23:11:00,
2013-05-05 16:32:00,75.0,34.0,-100.00,East,86,7.0,17.0,22,0.00,,,0.00,623.000000,,2013-05-05 23:32:00,
2013-05-05 16:42:00,75.0,34.0,-100.00,East,86,7.0,17.0,22,0.00,,,0.00,623.000000,,2013-05-05 23:42:00,
2013-05-05 16:52:00,75.0,34.0,-100.00,East,86,7.0,17.0,22,0.00,,,0.00,623.000000,,2013-05-05 23:52:00,
2013-05-05 17:01:00,75.0,34.0,-100.00,East,86,7.0,17.0,22,0.00,,,0.00,623.000000,,2013-05-06 00:01:00,
2013-05-05 17:11:00,75.0,34.0,-100.00,East,86,7.0,17.0,22,0.00,,,0.00,623.000000,,2013-05-06 00:11:00,
2013-05-05 18:32:00,73.0,35.0,-100.00,East,94,6.0,14.0,25,-99.99,,,0.00,206.000000,,2013-05-06 01:32:00,
2013-05-05 18:42:00,73.0,35.0,-100.00,East,94,6.0,14.0,25,-99.99,,,0.00,206.000000,,2013-05-06 01:42:00,
2013-05-05 18:52:00,73.0,35.0,-100.00,East,94,6.0,14.0,25,-99.99,,,0.00,206.000000,,2013-05-06 01:52:00,
2013-05-05 19:01:00,73.0,35.0,-100.00,East,94,6.0,14.0,25,-99.99,,,0.00,206.000000,,2013-05-06 02:01:00,
2013-05-05 19:11:00,73.0,35.0,-100.00,East,94,6.0,14.0,25,-99.99,,,0.00,206.000000,,2013-05-06 02:11:00,
2013-05-05 19:32:00,71.0,36.0,-100.00,East,89,5.0,12.0,28,0.00,,,0.00,159.000000,,2013-05-06 02:32:00,
2013-05-05 19:42:00,71.0,36.0,-100.00,East,89,5.0,12.0,28,0.00,,,0.00,159.000000,,2013-05-06 02:42:00,
2013-05-05 19:52:00,71.0,36.0,-100.00,East,89,5.0,12.0,28,0.00,,,0.00,159.000000,,2013-05-06 02:52:00,
2013-05-05 20:01:00,71.0,36.0,-100.00,East,89,5.0,12.0,28,0.00,,,0.00,159.000000,,2013-05-06 03:01:00,
2013-05-05 20:11:00,71.0,36.0,-100.00,East,89,5.0,12.0,28,0.00,,,0.00,159.000000,,2013-05-06 03:11:00,
2013-05-05 20:33:00,68.0,34.0,-100.00,ENE,73,8.0,12.0,28,0.00,,,0.00,34.000000,,2013-05-06 03:33:00,
2013-05-05 20:42:00,68.0,34.0,-100.00,ENE,73,8.0,12.0,28,0.00,,,0.00,34.000000,,2013-05-06 03:42:00,
2013-05-05 20:52:00,68.0,34.0,-100.00,ENE,73,8.0,12.0,28,0.00,,,0.00,34.000000,,2013-05-06 03:52:00,
2013-05-05 21:02:00,68.0,34.0,-100.00,ENE,73,8.0,12.0,28,0.00,,,0.00,34.000000,,2013-05-06 04:02:00,
2013-05-05 21:12:00,68.0,34.0,-100.00,ENE,73,8.0,12.0,28,0.00,,,0.00,34.000000,,2013-05-06 04:12:00,
2013-05-05 21:43:00,68.0,33.0,-100.00,ENE,75,8.0,17.0,27,0.00,,,0.00,2.000000,,2013-05-06 04:43:00,
2013-05-05 21:53:00,68.0,33.0,-100.00,ENE,75,8.0,17.0,27,0.00,,,0.00,2.000000,,2013-05-06 04:53:00,
2013-05-05 22:02:00,68.0,33.0,-100.00,ENE,75,8.0,17.0,27,0.00,,,0.00,2.000000,,2013-05-06 05:02:00,
2013-05-05 22:12:00,68.0,33.0,-100.00,ENE,75,8.0,17.0,27,0.00,,,0.00,2.000000,,2013-05-06 05:12:00,
2013-05-05 22:32:00,65.0,33.0,-100.00,East,92,5.0,7.0,30,-99.99,,,0.00,0.000000,,2013-05-06 05:32:00,
2013-05-05 22:42:00,65.0,33.0,-100.00,East,92,5.0,7.0,30,-99.99,,,0.00,0.000000,,2013-05-06 05:42:00,
2013-05-05 22:52:00,65.0,33.0,-100.00,East,92,5.0,7.0,30,-99.99,,,0.00,0.000000,,2013-05-06 05:52:00,
2013-05-05 23:02:00,65.0,33.0,-100.00,East,92,5.0,7.0,30,-99.99,,,0.00,0.000000,,2013-05-06 06:02:00,
2013-05-05 23:12:00,65.0,33.0,-100.00,East,92,5.0,7.0,30,-99.99,,,0.00,0.000000,,2013-05-06 06:12:00,
2013-05-05 23:42:00,66.0,33.0,-100.00,East,81,4.0,12.0,29,0.00,,,0.00,0.000000,,2013-05-06 06:42:00,
2013-05-05 23:52:00,66.0,33.0,-100.00,East,81,4.0,12.0,29,0.00,,,0.00,0.000000,,2013-05-06 06:52:00,